Time;durP1;ratioP1;P1;durP2;ratioP2;P2;SDS_P1;SDS_P2;PMS_P1;PMS_P2;Temp;Humidity;BMP_temperature;BMP_pressure;BME280_temperature;BME280_humidity;BME280_pressure;Samples;Min_cycle;Max_cycle;Signal;HPM_P1;HPM_P2
2022/06/10 00:01:35;;;;;;;19.70;10.00;;;;;;;21.20;59.96;99108.94;5098985;27;20499;-76
2022/06/10 00:04:00;;;;;;;17.13;9.95;;;;;;;21.19;60.17;99107.25;5098882;27;20094;-75
2022/06/10 00:06:24;;;;;;;12.85;9.15;;;;;;;21.17;59.79;99104.69;5097722;27;20039;-76
2022/06/10 00:08:49;;;;;;;20.63;10.05;;;;;;;21.17;59.72;99103.84;5097743;27;20042;-73
2022/06/10 00:11:14;;;;;;;14.40;8.50;;;;;;;21.13;59.58;99108.78;5080713;27;20484;-71
2022/06/10 00:13:42;;;;;;;18.08;11.38;;;;;;;21.15;59.80;99116.75;5116134;27;20042;-71
2022/06/10 00:16:08;;;;;;;13.85;9.43;;;;;;;21.11;59.00;99110.00;5075167;27;20114;-69
2022/06/10 00:18:34;;;;;;;19.55;10.98;;;;;;;21.11;58.44;99113.56;5080441;27;20034;-71
2022/06/10 00:21:00;;;;;;;17.02;9.70;;;;;;;21.09;58.06;99118.34;5115153;27;20077;-70
2022/06/10 00:23:26;;;;;;;15.95;8.68;;;;;;;21.09;57.58;99117.53;5077976;27;20038;-71
2022/06/10 00:25:51;;;;;;;12.77;9.55;;;;;;;21.09;57.42;99123.78;5081325;27;20269;-76
2022/06/10 00:28:16;;;;;;;16.63;10.32;;;;;;;21.09;57.18;99126.50;5098173;27;20125;-74
2022/06/10 00:30:42;;;;;;;14.38;8.93;;;;;;;21.11;56.92;99129.81;5099201;27;20536;-70
2022/06/10 00:33:07;;;;;;;17.75;9.25;;;;;;;21.11;57.04;99126.28;5060564;27;20039;-69
2022/06/10 00:35:31;;;;;;;15.35;9.57;;;;;;;21.11;57.25;99129.81;5075435;27;20057;-75
2022/06/10 00:37:56;;;;;;;14.80;8.25;;;;;;;21.09;57.44;99131.91;5118174;27;20449;-75
2022/06/10 00:40:26;;;;;;;11.93;9.60;;;;;;;21.10;57.01;99136.31;5084156;27;20526;-74
2022/06/10 00:42:53;;;;;;;15.05;9.70;;;;;;;21.08;57.28;99137.53;5099110;27;20043;-68
2022/06/10 00:45:52;;;;;;;12.48;9.40;;;;;;;21.14;57.11;99137.59;5079295;27;20065;-69
2022/06/10 00:48:30;;;;;;;12.18;9.18;;;;;;;21.10;57.24;99138.19;5079460;27;20071;-69
2022/06/10 00:50:56;;;;;;;16.48;10.38;;;;;;;21.03;57.44;99146.19;5076809;27;20035;-70
2022/06/10 00:53:26;;;;;;;15.40;10.48;;;;;;;21.05;58.09;99148.72;5105063;27;20035;-72
2022/06/10 00:55:55;;;;;;;12.73;9.10;;;;;;;21.02;57.59;99150.78;5074439;27;20630;-73
2022/06/10 00:59:01;;;;;;;17.55;9.02;;;;;;;21.08;57.41;99154.63;5107532;27;20435;-69
2022/06/10 01:01:26;;;;;;;12.70;8.68;;;;;;;21.01;57.82;99156.38;5087296;27;20404;-71
2022/06/10 01:03:53;;;;;;;16.00;10.38;;;;;;;20.99;57.63;99163.88;5082533;27;20037;-70
2022/06/10 01:06:18;;;;;;;13.93;10.10;;;;;;;20.98;57.65;99156.78;5081868;27;20045;-71
2022/06/10 01:08:47;;;;;;;20.52;10.25;;;;;;;20.98;58.01;99171.19;5097728;27;20031;-71
2022/06/10 01:11:27;;;;;;;14.40;9.68;;;;;;;20.96;57.97;99162.38;5081723;27;20437;-73
2022/06/10 01:14:10;;;;;;;15.20;10.20;;;;;;;20.95;58.29;99165.28;5117356;27;20046;-73
2022/06/10 01:16:35;;;;;;;14.88;10.75;;;;;;;20.94;58.28;99169.00;5078818;27;20042;-74
2022/06/10 01:19:05;;;;;;;11.18;9.13;;;;;;;20.94;59.01;99172.56;5098345;27;20062;-71
2022/06/10 01:22:21;;;;;;;15.70;10.43;;;;;;;20.96;59.59;99180.50;5098352;27;20042;-73
2022/06/10 01:24:54;;;;;;;13.90;9.32;;;;;;;20.79;60.38;99177.13;5016662;28;20098;-71
2022/06/10 01:28:12;;;;;;;19.42;9.15;;;;;;;20.83;61.03;99183.03;5014194;28;20037;-72
2022/06/10 01:30:55;;;;;;;13.70;9.43;;;;;;;20.71;61.97;99190.78;4959793;28;20556;-74
2022/06/10 01:34:03;;;;;;;15.10;9.25;;;;;;;20.70;61.94;99193.66;4949787;28;20590;-75
2022/06/10 01:36:39;;;;;;;13.00;9.65;;;;;;;20.55;62.32;99185.50;4938158;28;20517;-68
2022/06/10 01:39:07;;;;;;;11.45;9.98;;;;;;;20.54;62.91;99190.09;4953736;28;20046;-69
2022/06/10 01:41:52;;;;;;;16.10;10.05;;;;;;;20.59;63.44;99184.13;4960450;28;20046;-71
2022/06/10 01:44:20;;;;;;;14.85;11.32;;;;;;;20.45;64.18;99174.94;4962485;28;20132;-71
2022/06/10 01:47:11;;;;;;;13.05;10.05;;;;;;;20.38;64.95;99163.19;4949069;28;20050;-73
2022/06/10 01:50:01;;;;;;;14.07;8.50;;;;;;;20.27;64.11;99155.47;4961693;28;20054;-73
2022/06/10 01:52:36;;;;;;;10.90;8.75;;;;;;;20.03;65.29;99161.94;4956418;28;20058;-73
2022/06/10 01:55:37;;;;;;;13.77;10.43;;;;;;;20.03;66.42;99171.91;4955896;28;20061;-73
2022/06/10 01:58:14;;;;;;;14.48;10.45;;;;;;;19.88;67.44;99175.41;4949522;28;20050;-71
2022/06/10 02:00:45;;;;;;;15.07;12.65;;;;;;;19.88;68.88;99172.69;4990647;28;20053;-71
2022/06/10 02:03:15;;;;;;;13.93;10.82;;;;;;;19.91;68.99;99168.78;5012446;27;20048;-71
2022/06/10 02:05:46;;;;;;;14.45;9.98;;;;;;;19.93;69.31;99166.75;5082863;27;20042;-74
2022/06/10 02:08:14;;;;;;;12.10;10.15;;;;;;;19.99;69.37;99176.00;5082962;27;20030;-74
2022/06/10 02:10:59;;;;;;;13.85;10.68;;;;;;;20.14;68.95;99187.72;5082554;27;20141;-71
2022/06/10 02:13:31;;;;;;;12.38;10.07;;;;;;;20.14;69.11;99187.72;5098740;27;20091;-73
2022/06/10 02:16:22;;;;;;;13.55;11.10;;;;;;;20.21;69.25;99189.50;5086195;27;20051;-73
2022/06/10 02:18:47;;;;;;;16.90;10.48;;;;;;;20.24;68.82;99191.00;5079463;27;20037;-72
2022/06/10 02:21:27;;;;;;;15.23;11.48;;;;;;;20.35;69.81;99195.16;5115055;27;20035;-64
2022/06/10 02:24:00;;;;;;;12.57;10.35;;;;;;;20.38;69.51;99211.06;5081827;27;20125;-67
2022/06/10 02:26:27;;;;;;;12.93;10.80;;;;;;;20.44;69.52;99210.31;5084143;27;20126;-67
2022/06/10 02:28:55;;;;;;;12.48;10.50;;;;;;;20.55;69.30;99205.31;5104215;27;20734;-65
2022/06/10 02:31:34;;;;;;;15.38;10.25;;;;;;;20.74;69.25;99198.53;5104510;27;20034;-72
2022/06/10 02:34:03;;;;;;;13.88;10.23;;;;;;;20.82;68.36;99209.28;5119118;27;20125;-64
2022/06/10 02:36:52;;;;;;;12.25;10.05;;;;;;;20.92;67.48;99220.69;5119740;27;20046;-63
2022/06/10 02:39:51;;;;;;;13.20;10.27;;;;;;;20.94;67.86;99206.94;5096764;27;20039;-64
2022/06/10 02:42:45;;;;;;;14.95;10.35;;;;;;;20.95;67.47;99208.63;5096689;27;20046;-64
2022/06/10 02:45:32;;;;;;;14.00;9.97;;;;;;;21.17;66.59;99207.69;5115939;27;20508;-64
2022/06/10 02:48:09;;;;;;;18.88;10.40;;;;;;;21.24;66.42;99205.94;5106798;27;20845;-68
2022/06/10 02:50:34;;;;;;;13.57;9.60;;;;;;;21.20;66.27;99210.06;5102953;27;20065;-69
2022/06/10 02:53:03;;;;;;;14.30;9.68;;;;;;;21.19;66.01;99219.22;5103797;27;20091;-71
2022/06/10 02:55:27;;;;;;;13.98;9.50;;;;;;;21.23;65.71;99225.09;5102976;27;20549;-68
2022/06/10 03:01:20;;;;;;;10.38;8.73;;;;;;;21.55;64.76;99222.00;5116534;27;20031;-68
2022/06/10 03:04:06;;;;;;;11.98;8.70;;;;;;;21.65;64.20;99216.28;5072864;27;20686;-68
2022/06/10 03:06:50;;;;;;;13.10;8.80;;;;;;;21.69;63.82;99206.69;5094665;27;20050;-68
2022/06/10 03:09:20;;;;;;;10.73;8.57;;;;;;;21.76;63.71;99195.94;5115037;27;20027;-69
2022/06/10 03:12:00;;;;;;;10.50;8.23;;;;;;;21.80;63.60;99195.34;5082402;27;20848;-71
2022/06/10 03:14:28;;;;;;;9.05;7.68;;;;;;;21.65;63.05;99176.41;5118838;27;20098;-69
2022/06/10 03:16:56;;;;;;;8.57;7.68;;;;;;;21.73;63.78;99184.44;5124040;27;20049;-69
2022/06/10 03:19:37;;;;;;;10.27;7.93;;;;;;;21.96;63.70;99192.41;5100615;27;20073;-71
2022/06/10 03:22:17;;;;;;;10.13;7.22;;;;;;;22.21;62.87;99189.31;5099855;27;20249;-71
2022/06/10 03:24:48;;;;;;;10.98;8.15;;;;;;;22.33;61.42;99187.75;5100234;27;20412;-71
2022/06/10 03:27:16;;;;;;;14.15;8.93;;;;;;;22.58;60.94;99188.16;5099956;27;20116;-71
2022/06/10 03:29:53;;;;;;;9.65;8.63;;;;;;;22.86;60.69;99188.19;5099639;27;20043;-71
2022/06/10 03:32:29;;;;;;;14.90;8.80;;;;;;;23.03;60.17;99184.94;5082972;27;20504;-71
2022/06/10 03:35:02;;;;;;;11.30;8.30;;;;;;;23.07;58.88;99190.81;5083056;27;20050;-71
2022/06/10 03:37:27;;;;;;;11.18;8.10;;;;;;;22.98;58.90;99187.44;5099941;27;20043;-72
2022/06/10 03:39:55;;;;;;;11.27;7.45;;;;;;;22.98;59.11;99192.88;5119060;27;20051;-70
2022/06/10 03:42:22;;;;;;;10.45;7.78;;;;;;;22.98;58.53;99192.88;5083978;27;20078;-70
2022/06/10 03:44:51;;;;;;;11.40;8.88;;;;;;;23.00;58.27;99193.50;5100601;27;20039;-71
2022/06/10 03:47:25;;;;;;;12.93;8.75;;;;;;;23.09;58.38;99194.19;5120257;27;20414;-70
2022/06/10 03:49:57;;;;;;;8.90;7.93;;;;;;;23.14;58.20;99200.69;5067695;27;20050;-71
2022/06/10 03:52:27;;;;;;;14.55;8.73;;;;;;;23.22;57.79;99207.84;5086526;27;20082;-71
2022/06/10 03:54:52;;;;;;;15.52;8.02;;;;;;;23.30;58.13;99202.22;5101054;27;20057;-70
2022/06/10 03:57:17;;;;;;;12.35;8.52;;;;;;;23.48;57.22;99220.72;5121357;27;20133;-70
2022/06/10 03:59:42;;;;;;;12.30;9.35;;;;;;;23.62;57.14;99206.16;5101352;27;20359;-70
2022/06/10 04:02:07;;;;;;;10.65;8.65;;;;;;;23.77;56.18;99206.00;5099749;27;20042;-71
2022/06/10 04:04:32;;;;;;;15.48;9.27;;;;;;;23.91;55.63;99207.72;5099071;27;20172;-70
2022/06/10 04:06:57;;;;;;;11.23;9.40;;;;;;;24.10;55.28;99209.66;5082153;27;20047;-69
2022/06/10 04:09:21;;;;;;;11.93;9.52;;;;;;;24.25;54.29;99212.22;5101047;27;20058;-70
2022/06/10 04:11:47;;;;;;;11.65;9.32;;;;;;;24.22;54.23;99210.75;5119264;27;20038;-71
2022/06/10 04:14:12;;;;;;;12.55;9.43;;;;;;;24.19;54.46;99204.84;5086443;27;20047;-71
2022/06/10 04:16:37;;;;;;;11.98;9.00;;;;;;;24.29;54.44;99208.03;5076411;28;20473;-70
2022/06/10 04:19:01;;;;;;;12.38;9.68;;;;;;;24.40;53.63;99203.84;5075970;28;20079;-70
2022/06/10 04:21:26;;;;;;;16.63;9.90;;;;;;;24.49;53.53;99199.88;5076563;28;20070;-69
2022/06/10 04:23:51;;;;;;;12.48;10.30;;;;;;;24.60;53.28;99201.97;5043849;28;20040;-72
2022/06/10 04:26:15;;;;;;;13.88;9.32;;;;;;;24.69;52.69;99203.44;5076605;28;20094;-79
2022/06/10 04:28:40;;;;;;;15.05;9.40;;;;;;;24.75;52.58;99199.84;5058729;28;20089;-79
2022/06/10 04:31:05;;;;;;;13.88;9.48;;;;;;;24.84;52.44;99203.19;5060622;28;20497;-71
2022/06/10 04:33:31;;;;;;;17.60;10.20;;;;;;;24.95;52.04;99208.84;5080821;28;20547;-71
2022/06/10 04:35:56;;;;;;;17.27;9.95;;;;;;;25.14;51.74;99215.34;5085301;28;20051;-69
2022/06/10 04:38:23;;;;;;;13.20;9.68;;;;;;;25.38;51.92;99207.50;5083669;28;20474;-70
2022/06/10 04:40:48;;;;;;;14.18;9.70;;;;;;;25.59;51.02;99212.66;5079761;28;20095;-69
2022/06/10 04:43:14;;;;;;;16.63;10.70;;;;;;;25.88;50.59;99214.84;5080436;28;20042;-71
2022/06/10 04:45:46;;;;;;;15.43;9.07;;;;;;;26.29;49.94;99224.53;5078104;27;20039;-70
2022/06/10 04:48:11;;;;;;;12.07;8.57;;;;;;;26.65;48.37;99221.91;5096204;27;20035;-70
2022/06/10 04:50:36;;;;;;;13.77;9.63;;;;;;;27.06;47.60;99213.16;5077591;27;20053;-71
2022/06/10 04:53:00;;;;;;;13.15;8.90;;;;;;;27.44;46.70;99212.06;5060721;27;20043;-71
2022/06/10 04:55:27;;;;;;;12.35;9.55;;;;;;;27.74;45.80;99210.25;5077575;27;20047;-72
2022/06/10 04:57:54;;;;;;;10.50;9.20;;;;;;;28.09;45.40;99209.56;5077557;27;20035;-72
2022/06/10 05:00:30;;;;;;;12.02;9.38;;;;;;;28.40;44.75;99214.81;5077802;27;20039;-71
2022/06/10 05:02:55;;;;;;;15.35;9.63;;;;;;;28.73;43.47;99219.75;5078054;27;20043;-70
2022/06/10 05:05:21;;;;;;;10.30;9.20;;;;;;;29.10;41.95;99222.28;5095020;27;20062;-71
2022/06/10 05:07:46;;;;;;;13.27;9.73;;;;;;;29.42;42.49;99215.34;5077143;27;20497;-72
2022/06/10 05:10:12;;;;;;;9.75;8.57;;;;;;;29.67;40.71;99217.81;5077448;27;20519;-72
2022/06/10 05:12:37;;;;;;;9.95;8.30;;;;;;;29.88;40.19;99222.63;5095832;27;20527;-72
2022/06/10 05:15:03;;;;;;;12.32;8.60;;;;;;;30.04;40.07;99223.78;5089317;27;20526;-71
2022/06/10 05:17:28;;;;;;;11.23;8.73;;;;;;;30.19;39.34;99225.97;5097742;27;20031;-71
2022/06/10 05:19:53;;;;;;;14.02;8.77;;;;;;;30.34;39.48;99229.03;5116242;27;20050;-71
2022/06/10 05:22:17;;;;;;;9.50;8.50;;;;;;;30.49;38.22;99226.50;5098180;27;20039;-71
2022/06/10 05:24:42;;;;;;;11.45;9.45;;;;;;;30.69;38.82;99226.06;5116877;27;20125;-71
2022/06/10 05:27:07;;;;;;;11.27;9.05;;;;;;;30.86;38.48;99228.81;5116160;27;20046;-74
2022/06/10 05:29:35;;;;;;;10.32;9.23;;;;;;;30.96;37.50;99239.97;5116640;27;20042;-71
2022/06/10 05:31:59;;;;;;;11.13;9.18;;;;;;;31.05;37.29;99244.78;5116708;27;20066;-71
2022/06/10 05:37:07;;;;;;;10.52;8.93;;;;;;;31.36;36.09;99240.63;5117119;27;20063;-72
2022/06/10 05:39:32;;;;;;;13.98;8.98;;;;;;;31.51;36.76;99242.72;5119016;27;20042;-72
2022/06/10 05:42:06;;;;;;;9.52;8.52;;;;;;;31.73;36.78;99237.25;5118237;27;20046;-72
2022/06/10 05:44:38;;;;;;;12.73;9.30;;;;;;;32.00;36.45;99240.91;5082369;27;20095;-71
2022/06/10 05:47:06;;;;;;;14.70;9.85;;;;;;;32.20;35.66;99248.59;5119639;27;20106;-72
2022/06/10 05:49:31;;;;;;;12.00;9.75;;;;;;;32.47;34.84;99245.84;5118969;27;20042;-71
2022/06/10 05:51:56;;;;;;;11.75;9.30;;;;;;;32.74;33.99;99235.59;5121243;27;20040;-74
2022/06/10 05:54:22;;;;;;;16.88;9.82;;;;;;;32.97;33.95;99239.09;5102667;27;20055;-73
2022/06/10 05:56:47;;;;;;;12.95;9.40;;;;;;;33.28;32.86;99243.75;5100429;27;20125;-71
2022/06/10 05:59:14;;;;;;;16.40;9.82;;;;;;;33.38;33.09;99240.22;5117054;27;20126;-70
2022/06/10 06:01:38;;;;;;;9.90;8.95;;;;;;;33.66;31.76;99242.56;5102713;27;20035;-71
2022/06/10 06:04:03;;;;;;;11.40;9.27;;;;;;;33.77;31.14;99247.06;5113074;27;20049;-72
2022/06/10 06:06:28;;;;;;;10.63;9.48;;;;;;;33.43;31.73;99238.31;5122111;27;20125;-70
2022/06/10 06:08:53;;;;;;;10.23;8.98;;;;;;;33.15;31.78;99244.19;5102720;27;20130;-72
2022/06/10 06:11:18;;;;;;;20.30;15.63;;;;;;;33.16;31.99;99255.00;5118078;27;20095;-71
2022/06/10 06:13:43;;;;;;;42.58;28.98;;;;;;;32.85;32.55;99243.97;5118623;27;20058;-71
2022/06/10 06:16:12;;;;;;;14.25;11.25;;;;;;;32.50;33.16;99242.56;5119771;27;20038;-71
2022/06/10 06:18:36;;;;;;;46.08;32.08;;;;;;;32.56;33.10;99244.25;5103469;27;20046;-71
2022/06/10 06:21:01;;;;;;;24.55;17.33;;;;;;;33.12;32.17;99247.47;5105401;27;20487;-70
2022/06/10 06:23:26;;;;;;;17.10;13.20;;;;;;;33.19;32.34;99253.59;5105219;27;20065;-70
2022/06/10 06:25:50;;;;;;;12.15;10.52;;;;;;;32.95;32.28;99246.81;5088281;27;20481;-73
2022/06/10 06:28:16;;;;;;;21.20;11.05;;;;;;;33.68;31.23;99253.34;5087267;27;20065;-72
2022/06/10 06:30:40;;;;;;;13.05;10.98;;;;;;;34.83;30.05;99246.50;5103731;27;20038;-70
2022/06/10 06:33:07;;;;;;;11.90;10.57;;;;;;;36.02;28.29;99244.00;5100811;27;20035;-71
2022/06/10 06:35:34;;;;;;;19.02;13.23;;;;;;;35.95;28.26;99240.72;5121378;27;20045;-70
2022/06/10 06:38:01;;;;;;;11.75;10.00;;;;;;;35.40;28.60;99244.50;5120057;27;20047;-72
2022/06/10 06:40:25;;;;;;;33.95;26.40;;;;;;;35.15;28.98;99237.03;5119582;27;20492;-69
2022/06/10 06:42:50;;;;;;;13.70;12.25;;;;;;;34.47;29.46;99239.25;5118817;27;20457;-71
2022/06/10 06:45:17;;;;;;;16.27;12.82;;;;;;;34.22;30.37;99245.53;5119142;27;20042;-70
2022/06/10 06:47:43;;;;;;;15.88;11.13;;;;;;;35.11;29.48;99235.94;5118608;27;20035;-71
2022/06/10 06:50:09;;;;;;;14.48;10.60;;;;;;;36.67;27.09;99234.44;5118962;27;20113;-70
2022/06/10 06:52:34;;;;;;;17.30;12.55;;;;;;;38.32;24.91;99239.59;5119025;27;20042;-71
2022/06/10 06:54:59;;;;;;;21.80;15.90;;;;;;;38.78;24.15;99236.09;5118849;27;20118;-71
2022/06/10 06:57:25;;;;;;;15.75;14.18;;;;;;;38.99;24.13;99237.44;5082767;27;20051;-72
2022/06/10 06:59:50;;;;;;;18.83;14.45;;;;;;;38.72;24.34;99242.88;5100143;27;20423;-70
2022/06/10 07:02:15;;;;;;;11.77;10.57;;;;;;;38.48;24.43;99241.03;5118708;27;20519;-70
2022/06/10 07:04:39;;;;;;;16.80;14.38;;;;;;;38.34;24.52;99245.69;5118681;27;20042;-72
2022/06/10 07:07:05;;;;;;;13.85;12.45;;;;;;;37.64;25.07;99248.28;5118863;27;20050;-69
2022/06/10 07:09:30;;;;;;;13.18;11.80;;;;;;;37.11;25.28;99241.84;5099346;27;20042;-71
2022/06/10 07:11:55;;;;;;;16.77;13.52;;;;;;;37.12;25.59;99242.69;5118434;27;20043;-72
2022/06/10 07:14:22;;;;;;;11.25;10.05;;;;;;;37.69;24.87;99237.09;5118322;27;20057;-71
2022/06/10 07:16:46;;;;;;;16.10;14.48;;;;;;;37.52;25.42;99242.25;5118465;27;20050;-71
2022/06/10 07:19:11;;;;;;;15.73;12.68;;;;;;;37.28;26.07;99238.63;5100205;27;20050;-71
2022/06/10 07:21:36;;;;;;;13.98;12.57;;;;;;;37.12;26.00;99232.41;5099499;27;20094;-70
2022/06/10 07:24:01;;;;;;;13.45;11.93;;;;;;;38.47;24.74;99247.72;5082340;27;20106;-72
2022/06/10 07:26:26;;;;;;;14.93;10.68;;;;;;;40.24;22.89;99253.91;5118598;27;20465;-72
2022/06/10 07:28:51;;;;;;;11.23;10.13;;;;;;;41.48;21.26;99257.81;5120417;27;20041;-72
2022/06/10 07:31:16;;;;;;;15.25;13.70;;;;;;;42.40;19.58;99250.38;5084567;27;20074;-73
2022/06/10 07:33:41;;;;;;;11.95;10.85;;;;;;;42.72;19.47;99249.88;5122767;27;20034;-72
2022/06/10 07:36:06;;;;;;;12.57;11.38;;;;;;;42.83;18.65;99252.38;5125830;27;20046;-73
2022/06/10 07:38:31;;;;;;;11.85;10.73;;;;;;;42.15;19.24;99248.34;5133303;27;20042;-73
2022/06/10 07:43:42;;;;;;;12.73;11.57;;;;;;;44.83;17.61;99260.31;5100179;27;20042;-71
2022/06/10 07:46:08;;;;;;;13.85;12.73;;;;;;;46.65;15.86;99276.56;5099351;27;20518;-70
2022/06/10 07:48:33;;;;;;;13.20;12.10;;;;;;;47.81;15.04;99264.06;5117824;27;20031;-70
2022/06/10 07:50:58;;;;;;;15.30;13.98;;;;;;;48.57;14.54;99275.94;5117200;27;20052;-70
2022/06/10 07:53:23;;;;;;;16.67;15.25;;;;;;;49.05;13.43;99264.00;5117846;27;20066;-71
2022/06/10 07:55:48;;;;;;;17.58;16.38;;;;;;;49.30;13.27;99275.84;5098615;27;20046;-72
2022/06/10 07:58:15;;;;;;;18.48;16.83;;;;;;;48.91;13.55;99266.56;5082196;27;20054;-72
2022/06/10 08:00:40;;;;;;;18.25;16.45;;;;;;;48.38;14.42;99256.91;5124867;27;20528;-70
2022/06/10 08:03:05;;;;;;;17.75;16.55;;;;;;;48.28;14.16;99261.16;5090963;27;20064;-70
2022/06/10 08:05:30;;;;;;;19.15;17.35;;;;;;;47.60;13.94;99255.84;5123378;27;20042;-71
2022/06/10 08:07:56;;;;;;;17.50;16.02;;;;;;;45.97;14.93;99262.31;5086135;27;20095;-71
2022/06/10 08:10:30;;;;;;;14.02;13.02;;;;;;;44.42;16.27;99256.34;5065810;27;20035;-71
2022/06/10 08:12:55;;;;;;;13.80;12.68;;;;;;;44.32;15.86;99261.53;5117056;27;20039;-70
2022/06/10 08:15:22;;;;;;;16.80;15.30;;;;;;;45.62;15.05;99261.13;5118557;27;20051;-71
2022/06/10 08:17:47;;;;;;;15.77;14.50;;;;;;;47.50;13.87;99256.41;5082481;27;20412;-71
2022/06/10 08:23:24;;;;;;;20.13;18.35;;;;;;;50.00;12.21;99251.97;5116824;27;20055;-70
2022/06/10 08:25:52;;;;;;;18.80;17.45;;;;;;;50.75;11.83;99257.47;5116621;27;20523;-71
2022/06/10 08:28:17;;;;;;;20.25;18.75;;;;;;;50.93;11.03;99259.72;5098457;27;20042;-72
2022/06/10 08:30:42;;;;;;;21.67;20.05;;;;;;;50.77;12.11;99262.78;5118075;27;20041;-74
2022/06/10 08:33:07;;;;;;;18.40;17.30;;;;;;;50.60;11.27;99254.84;5082241;27;20128;-70
2022/06/10 08:35:34;;;;;;;24.80;23.08;;;;;;;50.59;11.40;99256.03;5099167;27;20042;-70
2022/06/10 08:38:01;;;;;;;22.08;20.67;;;;;;;50.65;10.59;99265.88;5116869;27;20049;-70
2022/06/10 08:40:54;;;;;;;23.67;22.27;;;;;;;51.51;10.35;99266.44;5116160;27;20453;-72
2022/06/10 08:43:19;;;;;;;24.33;22.83;;;;;;;50.95;10.92;99249.63;5112192;27;20043;-71
2022/06/10 08:45:57;;;;;;;26.13;24.42;;;;;;;51.28;10.75;99267.81;5098460;27;20162;-70
2022/06/10 08:48:59;;;;;;;28.83;26.77;;;;;;;52.01;10.58;99266.06;5116795;27;20098;-71
2022/06/10 08:51:58;;;;;;;23.15;21.35;;;;;;;51.34;10.76;99263.44;5083856;27;20401;-72
2022/06/10 08:54:39;;;;;;;22.63;21.13;;;;;;;51.18;11.19;99257.97;4994105;28;20166;-70
2022/06/10 08:57:32;;;;;;;30.17;27.95;;;;;;;51.33;10.96;99261.81;4976860;28;20056;-69
2022/06/10 08:59:59;;;;;;;26.95;25.25;;;;;;;51.91;10.56;99253.41;4968753;28;20088;-69
2022/06/10 09:02:31;;;;;;;29.17;27.05;;;;;;;52.74;9.80;99261.19;4992990;28;20037;-70
2022/06/10 09:05:26;;;;;;;34.92;32.47;;;;;;;53.49;9.17;99265.88;4977184;28;20491;-70
2022/06/10 09:08:00;;;;;;;29.95;28.13;;;;;;;53.52;9.47;99261.38;4976551;28;20450;-70
2022/06/10 09:10:38;;;;;;;36.22;34.35;;;;;;;53.41;8.81;99261.38;4976688;28;20037;-70
2022/06/10 09:13:28;;;;;;;32.40;30.40;;;;;;;52.00;9.79;99262.41;4993221;28;20052;-70
2022/06/10 09:16:11;;;;;;;29.23;27.20;;;;;;;49.48;11.95;99250.66;4959775;28;20072;-70
2022/06/10 09:18:47;;;;;;;24.27;22.90;;;;;;;49.75;11.93;99243.03;4978851;28;20099;-70
2022/06/10 09:21:37;;;;;;;31.05;28.55;;;;;;;49.57;11.54;99239.91;4995548;28;20072;-70
2022/06/10 09:24:08;;;;;;;22.02;20.13;;;;;;;48.42;12.60;99240.84;4999081;28;20057;-72
2022/06/10 09:26:41;;;;;;;23.15;21.75;;;;;;;49.44;11.74;99242.06;4979188;28;20124;-70
2022/06/10 09:29:08;;;;;;;28.73;26.83;;;;;;;50.42;10.59;99246.09;5001366;28;20054;-70
2022/06/10 09:31:40;;;;;;;25.95;24.10;;;;;;;51.74;9.58;99243.50;5082886;27;20054;-72
2022/06/10 09:34:12;;;;;;;;;;;;;;;54.10;8.73;99248.75;5117127;27;20390;-72
2022/06/10 09:36:43;;;;;;;;;;;;;;;55.34;8.36;99257.59;5098440;27;19921;-72
2022/06/10 09:42:09;;;;;;;39.40;37.00;;;;;;;55.28;8.10;99259.28;5116140;27;20042;-70
2022/06/10 09:45:02;;;;;;;45.13;42.65;;;;;;;55.73;7.98;99260.19;5098550;27;20445;-72
2022/06/10 09:47:39;;;;;;;50.22;47.85;;;;;;;56.36;6.92;99262.84;5081517;27;20033;-71
2022/06/10 09:50:13;;;;;;;47.65;44.88;;;;;;;56.03;7.66;99250.06;5098055;27;20387;-70
2022/06/10 09:52:49;;;;;;;56.97;54.17;;;;;;;56.77;7.35;99251.31;5118637;27;20091;-70
2022/06/10 09:55:49;;;;;;;60.00;57.17;;;;;;;56.77;7.17;99254.16;5120089;27;20050;-70
2022/06/10 09:58:47;;;;;;;55.17;52.22;;;;;;;55.14;7.94;99252.84;4999661;28;20052;-69
2022/06/10 10:01:35;;;;;;;51.40;48.85;;;;;;;54.82;7.79;99236.72;5000276;28;20040;-70
2022/06/10 10:04:25;;;;;;;48.03;45.42;;;;;;;54.83;7.89;99243.25;5017077;28;20618;-70
2022/06/10 10:07:04;;;;;;;34.88;32.95;;;;;;;51.99;9.41;99231.50;5016181;28;20048;-70
2022/06/10 10:09:45;;;;;;;30.83;28.80;;;;;;;51.00;10.49;99237.09;5016347;28;20076;-69
2022/06/10 10:12:31;;;;;;;26.42;25.05;;;;;;;52.19;9.22;99230.00;5016180;28;20052;-69
2022/06/10 10:15:12;;;;;;;42.15;39.08;;;;;;;53.48;8.62;99232.09;5015937;28;20118;-70
2022/06/10 10:17:52;;;;;;;38.35;36.35;;;;;;;54.34;7.80;99239.31;4998654;28;20066;-70
2022/06/10 10:20:22;;;;;;;38.15;36.00;;;;;;;53.98;8.38;99227.16;4998780;28;20086;-70
2022/06/10 10:22:56;;;;;;;43.00;40.55;;;;;;;53.82;8.56;99238.19;4999020;28;20059;-70
2022/06/10 10:25:24;;;;;;;40.30;38.20;;;;;;;54.39;7.96;99236.06;4999254;28;20525;-72
2022/06/10 10:27:50;;;;;;;47.42;45.00;;;;;;;54.87;7.20;99244.00;5017097;28;20053;-72
2022/06/10 10:30:43;;;;;;;46.42;44.05;;;;;;;55.30;7.58;99242.53;5015844;28;20052;-72
2022/06/10 10:33:14;;;;;;;37.50;35.60;;;;;;;52.23;8.19;99226.00;5016182;28;20496;-72
2022/06/10 10:35:41;;;;;;;25.43;24.03;;;;;;;48.32;10.29;99219.59;5090483;27;20046;-70
2022/06/10 10:38:28;;;;;;;16.88;15.80;;;;;;;44.92;12.60;99195.53;5100498;27;20042;-70
2022/06/10 10:40:52;;;;;;;14.25;13.15;;;;;;;41.80;15.31;99195.03;5108781;27;20406;-71
2022/06/10 10:43:30;;;;;;;12.65;11.35;;;;;;;40.11;15.70;99193.34;5119161;27;20462;-70
2022/06/10 10:46:07;;;;;;;10.38;9.40;;;;;;;38.02;18.12;99184.34;5100805;27;20062;-70
2022/06/10 10:48:37;;;;;;;9.52;8.73;;;;;;;35.28;22.14;99181.91;5084491;27;20038;-69
2022/06/10 10:51:11;;;;;;;8.70;7.75;;;;;;;33.64;23.26;99185.88;5100743;27;20043;-71
2022/06/10 10:53:41;;;;;;;8.82;7.13;;;;;;;32.09;25.24;99170.38;5101389;27;20058;-71
2022/06/10 10:56:08;;;;;;;10.52;7.55;;;;;;;31.38;25.99;99172.31;5080195;27;20821;-71
2022/06/10 10:58:41;;;;;;;9.48;7.60;;;;;;;31.29;26.28;99171.09;5101225;27;20058;-71
2022/06/10 11:01:08;;;;;;;16.67;8.68;;;;;;;31.27;27.27;99175.19;5100269;27;20153;-70
2022/06/10 11:03:49;;;;;;;9.63;7.28;;;;;;;31.32;25.87;99176.09;5118695;27;20038;-71
2022/06/10 11:06:30;;;;;;;11.30;7.13;;;;;;;31.53;26.69;99187.38;5100344;27;20513;-69
2022/06/10 11:09:01;;;;;;;7.72;6.97;;;;;;;31.38;26.38;99188.00;5100647;27;20439;-70
2022/06/10 11:11:36;;;;;;;9.65;6.88;;;;;;;31.45;26.04;99180.41;5118981;27;20535;-65
2022/06/10 11:14:21;;;;;;;8.20;7.20;;;;;;;31.34;26.68;99182.19;5118458;27;20047;-68
2022/06/10 11:17:12;;;;;;;7.78;7.05;;;;;;;31.37;26.81;99180.84;5118664;27;20130;-67
2022/06/10 11:19:36;;;;;;;7.22;6.10;;;;;;;31.03;26.65;99180.91;5123781;27;20039;-66
2022/06/10 11:22:01;;;;;;;7.00;6.30;;;;;;;30.85;27.12;99177.59;5108880;27;20047;-67
2022/06/10 11:24:30;;;;;;;8.05;6.05;;;;;;;30.69;27.50;99187.56;5127424;27;20062;-67
2022/06/10 11:26:58;;;;;;;14.93;6.47;;;;;;;30.52;27.25;99184.75;5128810;27;20122;-73
2022/06/10 11:29:24;;;;;;;8.02;6.85;;;;;;;30.36;27.90;99182.84;5123336;27;20046;-74
2022/06/10 11:31:55;;;;;;;11.05;9.80;;;;;;;30.28;29.05;99178.56;5102336;27;20091;-72
2022/06/10 11:34:43;;;;;;;12.20;7.97;;;;;;;30.25;28.72;99181.81;5101776;27;20042;-73
2022/06/10 11:37:41;;;;;;;13.48;8.07;;;;;;;30.17;28.29;99176.72;5100654;27;20141;-63
2022/06/10 11:40:21;;;;;;;7.85;7.05;;;;;;;30.10;28.81;99178.81;4981772;28;20064;-65
2022/06/10 11:42:55;;;;;;;8.20;7.20;;;;;;;29.99;29.24;99181.63;4998529;28;20053;-64
2022/06/10 11:45:24;;;;;;;9.15;8.25;;;;;;;29.88;29.14;99184.16;4982925;28;20135;-67
2022/06/10 11:47:56;;;;;;;17.02;13.20;;;;;;;29.80;29.26;99178.19;4999071;28;20476;-70
2022/06/10 11:50:36;;;;;;;19.65;13.38;;;;;;;29.72;29.16;99182.16;4983013;28;20504;-81
2022/06/10 11:53:20;;;;;;;11.05;9.55;;;;;;;29.53;29.53;99181.53;5010334;28;20110;-77
2022/06/10 11:55:50;;;;;;;12.85;9.02;;;;;;;29.36;30.99;99179.75;4992014;28;20270;-68
2022/06/10 12:01:25;;;;;;;16.45;11.48;;;;;;;29.60;29.75;99175.88;5016894;28;20049;-67
2022/06/10 12:04:09;;;;;;;10.68;7.35;;;;;;;29.65;30.18;99173.25;5018462;28;20048;-73